createdAt,value
2018-04-15T00:00:55.375Z,46.50
2018-04-15T00:02:56.459Z,50.10
2018-04-15T00:04:57.421Z,48.47
2018-04-15T00:09:36.828Z,51.10
2018-04-15T00:11:46.568Z,47.87
2018-04-15T00:13:58.889Z,49.93
2018-04-15T00:16:00.005Z,48.10
2018-04-15T00:18:14.519Z,48.23
2018-04-15T00:20:17.962Z,42.17
2018-04-15T00:22:27.637Z,43.83
2018-04-15T00:24:30.379Z,45.43
2018-04-15T00:26:31.399Z,42.40
2018-04-15T00:28:32.479Z,45.90
2018-04-15T00:30:37.703Z,40.40
2018-04-15T00:32:46.142Z,45.57
2018-04-15T00:37:34.344Z,51.83
2018-04-15T00:42:10.567Z,50.50
2018-04-15T00:44:34.026Z,50.77
2018-04-15T00:49:05.046Z,52.17
2018-04-15T00:53:34.388Z,53.10
2018-04-15T00:55:35.860Z,49.77
2018-04-15T01:00:04.033Z,53.67
2018-04-15T01:02:05.369Z,53.77
2018-04-15T01:04:06.842Z,51.47
2018-04-15T01:06:14.303Z,51.43
2018-04-15T01:08:28.510Z,52.00
2018-04-15T01:10:29.759Z,51.70
2018-04-15T01:12:45.743Z,52.83
2018-04-15T01:14:47.143Z,52.27
2018-04-15T01:16:48.151Z,55.20
2018-04-15T01:18:55.740Z,52.43
2018-04-15T01:21:07.208Z,53.13
2018-04-15T01:23:08.230Z,54.03
2018-04-15T01:25:09.343Z,55.37
2018-04-15T01:27:10.467Z,49.80
2018-04-15T01:29:13.623Z,50.70
2018-04-15T01:31:14.775Z,56.03
2018-04-15T01:33:17.745Z,53.97
2018-04-15T01:35:18.903Z,55.00
2018-04-15T01:39:57.782Z,52.97
2018-04-15T01:41:59.540Z,54.40
2018-04-15T01:49:21.242Z,51.37
2018-04-15T01:51:22.255Z,58.87
2018-04-15T01:53:23.332Z,55.77
2018-04-15T01:55:44.247Z,59.00
2018-04-15T02:05:44.394Z,53.13
2018-04-15T02:07:58.534Z,54.63
2018-04-15T02:12:37.535Z,55.07
2018-04-15T02:20:04.156Z,55.27
2018-04-15T02:22:05.352Z,56.63
2018-04-15T02:24:06.579Z,58.50
2018-04-15T02:26:07.698Z,57.23
2018-04-15T02:28:15.463Z,57.40
2018-04-15T02:30:19.205Z,60.20
2018-04-15T02:32:20.440Z,55.90
2018-04-15T02:34:21.492Z,58.57
2018-04-15T02:36:22.607Z,58.20
2018-04-15T02:38:25.362Z,58.50
2018-04-15T02:40:26.545Z,57.07
2018-04-15T02:42:29.719Z,56.77
2018-04-15T02:44:31.451Z,57.20
2018-04-15T02:46:32.589Z,55.53
2018-04-15T03:04:40.001Z,81.95
2018-04-15T03:15:03.485Z,58.13
2018-04-15T03:17:04.806Z,56.30
2018-04-15T03:21:33.835Z,58.70
2018-04-15T03:23:35.486Z,57.83
2018-04-15T03:25:37.476Z,56.83
2018-04-15T03:29:46.565Z,57.97
2018-04-15T03:31:47.600Z,57.37
2018-04-15T03:33:54.879Z,60.03
2018-04-15T03:38:34.234Z,55.80
2018-04-15T03:43:21.721Z,56.27
2018-04-15T03:48:15.182Z,57.60
2018-04-15T03:50:23.765Z,61.20
2018-04-15T03:52:26.903Z,59.27
2018-04-15T03:54:28.821Z,61.00
2018-04-15T03:56:52.048Z,61.13
2018-04-15T03:58:53.489Z,61.40
2018-04-15T04:03:22.522Z,61.97
2018-04-15T04:05:23.769Z,60.57
2018-04-15T04:09:43.327Z,62.33
2018-04-15T04:11:44.330Z,61.10
2018-04-15T04:15:55.655Z,60.40
2018-04-15T04:18:09.141Z,64.00
2018-04-15T04:20:22.645Z,61.23
2018-04-15T04:27:38.302Z,58.70
2018-04-15T04:37:05.804Z,59.83
2018-04-15T04:39:07.060Z,59.30
2018-04-15T04:41:08.180Z,60.73
2018-04-15T04:43:09.372Z,58.00
2018-04-15T04:45:10.948Z,56.63
2018-04-15T04:47:12.145Z,61.00
2018-04-15T04:51:51.480Z,58.53
2018-04-15T04:53:52.611Z,60.67
2018-04-15T04:56:06.622Z,60.93
2018-04-15T04:58:07.896Z,62.00
2018-04-15T05:00:10.022Z,60.30
2018-04-15T05:02:17.457Z,64.07
2018-04-15T05:04:20.062Z,59.80
2018-04-15T05:11:27.730Z,59.03
2018-04-15T05:26:13.742Z,57.53
2018-04-15T05:28:16.386Z,62.90
2018-04-15T05:30:18.549Z,64.90
2018-04-15T05:32:20.813Z,64.47
2018-04-15T05:34:21.927Z,61.40
2018-04-15T05:41:04.804Z,62.80
2018-04-15T05:51:30.975Z,60.77
2018-04-15T05:53:32.090Z,66.07
2018-04-15T05:55:34.791Z,65.27
2018-04-15T05:57:39.827Z,64.27
2018-04-15T05:59:44.550Z,69.23
2018-04-15T06:01:45.669Z,62.97
2018-04-15T06:03:50.057Z,64.17
2018-04-15T06:05:51.433Z,65.57
2018-04-15T06:07:52.468Z,69.17
2018-04-15T06:09:53.918Z,67.70
2018-04-15T06:11:56.118Z,67.23
2018-04-15T06:13:57.752Z,66.80
2018-04-15T06:15:58.787Z,68.07
2018-04-15T06:17:59.824Z,67.53
2018-04-15T06:20:00.985Z,71.23
2018-04-15T06:22:02.039Z,69.17
2018-04-15T06:24:03.030Z,70.17
2018-04-15T06:26:04.593Z,64.97
2018-04-15T06:28:06.395Z,66.87
2018-04-15T06:30:07.476Z,65.57
2018-04-15T06:32:08.469Z,69.47
2018-04-15T06:34:09.439Z,69.83
2018-04-15T06:36:10.515Z,64.00
2018-04-15T06:38:11.611Z,71.40
2018-04-15T06:40:12.648Z,74.27
2018-04-15T06:42:13.690Z,68.60
2018-04-15T06:44:21.360Z,69.77
2018-04-15T06:46:22.614Z,69.37
2018-04-15T06:51:41.963Z,63.40
2018-04-15T06:53:43.000Z,68.00
2018-04-15T06:55:44.659Z,71.50
2018-04-15T06:57:45.649Z,68.00
2018-04-15T06:59:46.700Z,70.33
2018-04-15T07:01:47.711Z,68.10
2018-04-15T07:03:48.737Z,69.03
2018-04-15T07:05:50.144Z,69.33
2018-04-15T07:07:51.426Z,71.27
2018-04-15T07:09:52.461Z,69.27
2018-04-15T07:11:53.482Z,71.07
2018-04-15T07:13:54.743Z,73.50
2018-04-15T07:15:55.759Z,67.67
2018-04-15T07:17:56.776Z,71.17
2018-04-15T07:19:57.748Z,69.80
2018-04-15T07:21:58.789Z,69.23
2018-04-15T07:23:59.833Z,72.53
2018-04-15T07:26:01.109Z,72.57
2018-04-15T07:28:02.089Z,73.17
2018-04-15T07:30:03.106Z,71.40
2018-04-15T07:32:04.567Z,69.07
2018-04-15T07:34:05.528Z,71.50
2018-04-15T07:36:06.829Z,69.70
2018-04-15T07:38:07.869Z,69.70
2018-04-15T07:40:08.839Z,68.60
2018-04-15T07:42:09.815Z,69.30
2018-04-15T07:44:10.848Z,70.20
2018-04-15T07:46:11.961Z,68.47
2018-04-15T07:48:13.048Z,72.77
2018-04-15T07:50:14.141Z,70.63
2018-04-15T07:52:15.240Z,70.47
2018-04-15T07:54:16.343Z,73.67
2018-04-15T07:56:17.800Z,69.63
2018-04-15T07:58:18.714Z,71.30
2018-04-15T08:00:19.708Z,75.60
2018-04-15T08:02:20.736Z,71.80
2018-04-15T08:04:22.647Z,76.60
2018-04-15T08:06:23.630Z,76.47
2018-04-15T08:08:24.627Z,74.73
2018-04-15T08:10:25.691Z,76.33
2018-04-15T08:12:26.730Z,73.90
2018-04-15T08:14:27.731Z,76.30
2018-04-15T08:16:29.067Z,73.10
2018-04-15T08:18:30.563Z,72.67
2018-04-15T08:20:32.078Z,71.37
2018-04-15T08:22:33.091Z,73.87
2018-04-15T08:24:34.128Z,72.50
2018-04-15T08:26:35.121Z,74.80
2018-04-15T08:28:36.192Z,75.00
2018-04-15T08:30:37.240Z,77.47
2018-04-15T08:32:38.223Z,76.07
2018-04-15T08:34:39.210Z,77.07
2018-04-15T08:36:40.951Z,78.97
2018-04-15T08:38:42.034Z,79.13
2018-04-15T08:40:43.583Z,76.57
2018-04-15T08:42:44.759Z,76.10
2018-04-15T08:44:45.843Z,74.10
2018-04-15T08:46:46.891Z,80.53
2018-04-15T08:48:48.588Z,73.77
2018-04-15T08:50:49.590Z,76.00
2018-04-15T08:52:51.178Z,77.87
2018-04-15T08:54:52.175Z,77.20
2018-04-15T08:56:53.194Z,78.07
2018-04-15T08:58:54.184Z,75.30
2018-04-15T09:00:55.430Z,68.23
2018-04-15T09:02:56.494Z,73.43
2018-04-15T09:04:57.492Z,73.40
2018-04-15T09:06:58.454Z,73.93
2018-04-15T09:08:59.518Z,69.13
2018-04-15T09:11:00.726Z,73.37
2018-04-15T09:13:01.876Z,71.80
2018-04-15T09:15:02.928Z,74.77
2018-04-15T09:17:07.405Z,70.60
2018-04-15T09:19:08.488Z,73.00
2018-04-15T09:21:09.607Z,71.07
2018-04-15T09:23:11.236Z,70.47
2018-04-15T09:25:13.258Z,68.27
2018-04-15T09:27:17.293Z,68.73
2018-04-15T09:29:18.557Z,71.77
2018-04-15T09:31:19.677Z,69.57
2018-04-15T09:33:20.820Z,69.83
2018-04-15T09:35:22.123Z,72.10
2018-04-15T09:37:26.308Z,68.13
2018-04-15T09:39:27.460Z,71.20
2018-04-15T09:41:28.716Z,62.10
2018-04-15T09:43:29.718Z,71.40
2018-04-15T09:45:30.965Z,72.83
2018-04-15T09:47:32.040Z,62.43
2018-04-15T09:49:33.067Z,59.10
2018-04-15T09:51:34.851Z,58.97
2018-04-15T09:53:36.002Z,66.80
2018-04-15T09:55:37.095Z,63.07
2018-04-15T09:57:38.249Z,61.33
2018-04-15T09:59:39.249Z,64.00
2018-04-15T10:01:40.786Z,74.57
2018-04-15T10:03:42.264Z,64.77
2018-04-15T10:05:43.414Z,65.50
2018-04-15T10:07:44.675Z,65.60
2018-04-15T10:09:46.405Z,64.77
2018-04-15T10:11:48.011Z,66.43
2018-04-15T10:13:49.094Z,61.63
2018-04-15T10:15:50.443Z,59.57
2018-04-15T10:17:51.745Z,58.50
2018-04-15T10:19:53.084Z,56.60
2018-04-15T10:21:54.228Z,55.07
2018-04-15T10:23:55.299Z,58.10
2018-04-15T10:25:57.182Z,60.90
2018-04-15T10:27:58.431Z,58.93
2018-04-15T10:30:00.336Z,54.00
2018-04-15T10:32:01.613Z,56.20
2018-04-15T10:34:03.023Z,54.37
2018-04-15T10:36:04.162Z,57.67
2018-04-15T10:38:06.752Z,54.53
2018-04-15T10:40:07.928Z,51.27
2018-04-15T10:42:10.253Z,50.53
2018-04-15T10:44:11.660Z,53.70
2018-04-15T10:46:12.771Z,55.07
2018-04-15T10:48:13.892Z,55.73
2018-04-15T10:50:18.033Z,55.47
2018-04-15T10:52:19.323Z,54.67
2018-04-15T10:57:00.501Z,55.93
2018-04-15T11:01:29.754Z,55.90
2018-04-15T11:03:31.421Z,57.30
2018-04-15T11:05:32.610Z,57.27
2018-04-15T11:07:33.772Z,56.17
2018-04-15T11:09:37.364Z,58.60
2018-04-15T11:11:38.568Z,59.50
2018-04-15T11:13:42.595Z,55.77
2018-04-15T11:15:43.792Z,55.97
2018-04-15T11:17:44.942Z,56.67
2018-04-15T11:19:46.063Z,51.83
2018-04-15T11:21:47.340Z,54.50
2018-04-15T11:23:48.421Z,49.07
2018-04-15T11:26:16.119Z,47.03
2018-04-15T11:30:44.858Z,40.90
2018-04-15T11:32:46.001Z,43.20
2018-04-15T11:34:51.700Z,42.50
2018-04-15T11:36:54.189Z,42.00
2018-04-15T11:38:55.454Z,39.03
2018-04-15T11:40:58.276Z,37.73
2018-04-15T11:42:59.955Z,37.43
2018-04-15T11:45:01.461Z,35.97
2018-04-15T11:47:02.960Z,38.03
2018-04-15T11:49:04.095Z,37.20
2018-04-15T11:51:06.503Z,32.90
2018-04-15T11:53:07.839Z,36.90
2018-04-15T11:55:09.031Z,39.03
2018-04-15T11:57:11.160Z,39.67
2018-04-15T11:59:13.525Z,38.10
2018-04-15T12:01:15.673Z,33.30
2018-04-15T12:03:16.771Z,37.03
2018-04-15T12:05:17.913Z,36.03
2018-04-15T12:07:20.284Z,36.77
2018-04-15T12:09:22.533Z,37.00
2018-04-15T12:11:24.551Z,37.13
2018-04-15T12:13:26.170Z,36.50
2018-04-15T12:15:27.350Z,37.20
2018-04-15T12:17:28.431Z,39.70
2018-04-15T12:19:29.542Z,34.53
2018-04-15T12:21:44.143Z,30.70
2018-04-15T12:23:45.355Z,29.90
2018-04-15T12:25:46.494Z,29.70
2018-04-15T12:28:13.562Z,29.10
2018-04-15T12:32:43.801Z,27.30
2018-04-15T12:34:45.139Z,30.45
2018-04-15T12:36:47.286Z,29.20
2018-04-15T12:39:14.493Z,31.03
2018-04-15T12:41:15.911Z,30.10
2018-04-15T12:43:23.392Z,26.87
2018-04-15T12:45:24.995Z,28.07
2018-04-15T12:47:46.978Z,29.20
2018-04-15T12:49:48.162Z,27.37
2018-04-15T12:51:49.223Z,30.83
2018-04-15T12:53:50.353Z,29.13
2018-04-15T12:55:51.426Z,29.87
2018-04-15T12:57:53.090Z,29.30
2018-04-15T12:59:54.240Z,27.37
2018-04-15T13:01:55.347Z,24.53
2018-04-15T13:03:56.372Z,25.67
2018-04-15T13:05:57.492Z,23.53
2018-04-15T13:07:59.119Z,22.47
2018-04-15T13:10:00.285Z,23.93
2018-04-15T13:12:01.407Z,24.70
2018-04-15T13:14:02.511Z,22.73
2018-04-15T13:16:05.367Z,20.03
2018-04-15T13:18:11.296Z,19.33
2018-04-15T13:20:13.790Z,18.60
2018-04-15T13:22:14.947Z,18.17
2018-04-15T13:24:15.928Z,17.53
2018-04-15T13:26:16.965Z,17.00
2018-04-15T13:28:18.553Z,18.10
2018-04-15T13:30:19.697Z,16.67
2018-04-15T13:32:20.784Z,17.67
2018-04-15T13:34:22.082Z,18.67
2018-04-15T13:36:23.151Z,16.40
2018-04-15T13:38:24.255Z,19.20
2018-04-15T13:40:25.420Z,18.50
2018-04-15T13:42:26.790Z,18.30
2018-04-15T13:44:27.936Z,18.17
2018-04-15T13:46:28.947Z,18.80
2018-04-15T13:48:30.231Z,17.80
2018-04-15T13:50:31.314Z,16.90
2018-04-15T13:52:32.443Z,16.63
2018-04-15T13:54:35.553Z,18.07
2018-04-15T13:56:37.025Z,17.70
2018-04-15T13:58:38.228Z,17.80
2018-04-15T14:00:39.350Z,17.60
2018-04-15T14:02:40.510Z,15.07
2018-04-15T14:04:41.753Z,15.77
2018-04-15T14:06:44.411Z,15.80
2018-04-15T14:08:45.570Z,15.67
2018-04-15T14:10:47.850Z,16.47
2018-04-15T14:12:49.052Z,15.97
2018-04-15T14:14:50.515Z,15.40
2018-04-15T14:16:51.792Z,15.63
2018-04-15T14:18:53.057Z,14.40
2018-04-15T14:20:54.284Z,14.93
2018-04-15T14:22:55.439Z,16.07
2018-04-15T14:24:56.918Z,15.17
2018-04-15T14:26:58.193Z,15.00
2018-04-15T14:28:59.330Z,15.17
2018-04-15T14:31:00.590Z,15.47
2018-04-15T14:33:02.293Z,18.63
2018-04-15T14:35:03.535Z,19.90
2018-04-15T14:37:04.685Z,19.20
2018-04-15T14:39:05.791Z,18.20
2018-04-15T14:41:07.067Z,18.33
2018-04-15T14:43:08.153Z,18.27
2018-04-15T14:45:09.137Z,16.00
2018-04-15T14:47:10.150Z,16.07
2018-04-15T14:49:11.168Z,17.00
2018-04-15T14:51:14.395Z,16.03
2018-04-15T14:55:42.642Z,16.13
2018-04-15T14:57:43.842Z,16.60
2018-04-15T14:59:49.414Z,15.30
2018-04-15T15:01:54.434Z,16.10
2018-04-15T15:04:07.466Z,15.47
2018-04-15T15:06:08.488Z,15.00
2018-04-15T15:08:22.527Z,15.47
2018-04-15T15:10:23.927Z,20.50
2018-04-15T15:12:25.224Z,20.23
2018-04-15T15:14:26.336Z,19.87
2018-04-15T15:16:27.372Z,20.00
2018-04-15T15:18:42.715Z,21.60
2018-04-15T15:20:45.054Z,19.57
2018-04-15T15:22:49.832Z,18.23
2018-04-15T15:24:55.036Z,18.30
2018-04-15T15:26:56.167Z,18.70
2018-04-15T15:28:57.565Z,19.10
2018-04-15T15:31:10.274Z,17.90
2018-04-15T15:33:11.540Z,19.77
2018-04-15T15:35:14.331Z,20.07
2018-04-15T15:37:15.834Z,20.13
2018-04-15T15:39:26.109Z,20.43
2018-04-15T15:41:28.885Z,20.80
2018-04-15T15:43:30.518Z,21.30
2018-04-15T15:45:36.224Z,21.03
2018-04-15T15:47:42.533Z,21.27
2018-04-15T15:49:44.139Z,21.20
2018-04-15T15:51:55.813Z,21.80
2018-04-15T15:53:59.471Z,22.80
2018-04-15T15:58:10.322Z,23.60
2018-04-15T16:00:11.740Z,22.80
2018-04-15T16:02:13.780Z,24.47
2018-04-15T16:04:22.351Z,24.17
2018-04-15T16:06:38.974Z,24.33
2018-04-15T16:08:40.024Z,23.87
2018-04-15T16:10:53.887Z,22.37
2018-04-15T16:15:23.151Z,24.87
2018-04-15T16:17:25.346Z,23.83
2018-04-15T16:19:39.174Z,22.43
2018-04-15T16:21:53.756Z,24.10
2018-04-15T16:28:59.506Z,24.23
2018-04-15T16:31:00.879Z,23.00
2018-04-15T16:40:36.841Z,24.73
2018-04-15T16:45:05.768Z,26.60
2018-04-15T16:49:45.718Z,23.60
2018-04-15T16:51:47.459Z,24.13
2018-04-15T16:53:48.866Z,23.43
2018-04-15T16:58:27.679Z,22.80
2018-04-15T17:00:54.075Z,24.50
2018-04-15T17:05:23.654Z,23.20
2018-04-15T17:12:41.780Z,23.40
2018-04-15T17:15:07.400Z,22.70
2018-04-15T17:19:47.050Z,23.67
2018-04-15T17:21:56.447Z,22.53
2018-04-15T17:29:13.546Z,22.80
2018-04-15T17:31:14.933Z,24.63
2018-04-15T17:41:03.539Z,24.40
2018-04-15T17:50:59.740Z,24.20
2018-04-15T17:53:00.938Z,25.83
2018-04-15T17:59:56.711Z,26.70
2018-04-15T18:36:02.947Z,31.10
2018-04-15T18:38:04.418Z,31.50
2018-04-15T18:40:06.524Z,27.87
2018-04-15T18:42:08.154Z,28.30
2018-04-15T18:46:39.331Z,31.10
2018-04-15T18:48:41.724Z,32.33
2018-04-15T18:50:42.929Z,29.83
2018-04-15T18:52:44.290Z,28.30
2018-04-15T18:54:46.668Z,31.10
2018-04-15T18:56:57.233Z,26.90
2018-04-15T18:59:00.069Z,28.67
2018-04-15T19:01:01.524Z,29.77
2018-04-15T19:03:18.352Z,30.87
2018-04-15T19:05:25.361Z,30.03
2018-04-15T19:07:35.483Z,28.63
2018-04-15T19:09:52.482Z,28.17
2018-04-15T19:11:54.549Z,28.07
2018-04-15T19:13:56.170Z,27.67
2018-04-15T19:15:58.016Z,27.33
2018-04-15T19:18:00.541Z,27.43
2018-04-15T19:22:39.994Z,27.50
2018-04-15T19:24:42.009Z,29.40
2018-04-15T19:34:26.854Z,29.90
2018-04-15T19:39:08.123Z,30.23
2018-04-15T19:41:27.069Z,32.07
2018-04-15T19:43:29.209Z,31.60
2018-04-15T19:48:20.957Z,33.07
2018-04-15T19:50:28.091Z,33.90
2018-04-15T19:54:58.133Z,28.10
2018-04-15T19:56:59.973Z,29.93
2018-04-15T20:04:12.225Z,30.57
2018-04-15T20:08:57.120Z,26.33
2018-04-15T20:13:43.842Z,28.77
2018-04-15T20:18:15.753Z,34.40
2018-04-15T20:28:22.214Z,30.37
2018-04-15T20:51:02.302Z,28.30
2018-04-15T20:55:50.196Z,29.80
2018-04-15T20:58:00.035Z,30.10
2018-04-15T21:05:28.011Z,26.30
2018-04-15T21:07:31.698Z,27.27
2018-04-15T21:35:09.583Z,38.10
2018-04-15T21:37:13.578Z,37.33
2018-04-15T21:43:58.618Z,39.50
2018-04-15T21:53:50.467Z,39.77
2018-04-15T21:55:51.931Z,39.50
2018-04-15T22:13:30.964Z,35.17
2018-04-15T22:15:32.048Z,36.87
2018-04-15T23:27:18.835Z,36.87
2018-04-15T23:41:55.319Z,40.80
2018-04-15T23:43:56.615Z,39.67
2018-04-15T23:51:26.937Z,37.97
2018-04-15T23:58:57.264Z,37.10
